This is the latest recevied weather packets stored in our database for station/object K7KAZ. If no packets are shown the sender has not sent any weather packets the latest 10 day(s).
| Time | Temp. | Humidity | Pressure | Rain* | Wind** | Luminosity | Snow |
|---|---|---|---|---|---|---|---|
| 1777798394 | 24.44° C | 27% | 1013.8 hPa | 0 mm | - | 0 W/m² | - |
| 1777798091 | 23.89° C | 28% | 1013.7 hPa | 0 mm | - | 0 W/m² | - |
| 1777797789 | 23.89° C | 28% | 1013.7 hPa | 0 mm | - | 0 W/m² | - |
| 1777797486 | 23.89° C | 28% | 1013.8 hPa | 0 mm | - | 0 W/m² | - |
| 1777797183 | 24.44° C | 27% | 1014.1 hPa | 0 mm | - | 0 W/m² | - |
| 1777796880 | 24.44° C | 27% | 1014 hPa | 0 mm | - | 0 W/m² | - |
| 1777796577 | 24.44° C | 27% | 1013.7 hPa | 0 mm | - | 0 W/m² | - |
| 1777796272 | 23.89° C | 28% | 1014 hPa | 0 mm | - | 0 W/m² | - |
| 1777795969 | 23.89° C | 27% | 1013.9 hPa | 0 mm | - | 0 W/m² | - |
| 1777795664 | 23.89° C | 29% | 1014.1 hPa | 0 mm | - | 0 W/m² | - |
| 1777795362 | 23.33° C | 31% | 1013.9 hPa | 0 mm | - | 0 W/m² | - |
| 1777795058 | 23.33° C | 29% | 1014 hPa | 0 mm | - | 0 W/m² | - |
| 1777794755 | 22.78° C | 30% | 1013.9 hPa | 0 mm | - | 0 W/m² | - |
| 1777794451 | 23.89° C | 31% | 1014.2 hPa | 0 mm | - | 0 W/m² | - |
| 1777794146 | 23.89° C | 28% | 1013.9 hPa | 0 mm | - | 0 W/m² | - |
| 1777793843 | 23.89° C | 29% | 1014.1 hPa | 0 mm | - | 0 W/m² | - |
| 1777793541 | 25° C | 27% | 1014.1 hPa | 0 mm | - | 0 W/m² | - |
| 1777793238 | 24.44° C | 26% | 1014.3 hPa | 0 mm | - | 0 W/m² | - |
| 1777792935 | 23.33° C | 30% | 1014.1 hPa | 0 mm | - | 0 W/m² | - |
| 1777792632 | 23.33° C | 30% | 1014.2 hPa | 0 mm | - | 0 W/m² | - |
| 1777792329 | 23.33° C | 28% | 1014.2 hPa | 0 mm | - | 0 W/m² | - |
| 1777792025 | 23.33° C | 28% | 1014.1 hPa | 0 mm | - | 0 W/m² | - |
| 1777791724 | 23.89° C | 27% | 1014.1 hPa | 0 mm | - | 0 W/m² | - |
| 1777791421 | 23.89° C | 27% | 1014 hPa | 0 mm | - | 0 W/m² | - |
| 1777791118 | 23.89° C | 26% | 1013.8 hPa | 0 mm | - | 0 W/m² | - |
* Rain latest hour (hover to see other rain measurements)
** Current wind speed in m/s (hover to see current wind gust speed)